createdAt,value
2019-01-30T00:02:49.138Z,13.50
2019-01-30T00:06:51.330Z,16.20
2019-01-30T00:10:52.575Z,12.58
2019-01-30T00:14:55.055Z,12.45
2019-01-30T00:18:59.379Z,12.35
2019-01-30T00:23:01.561Z,16.80
2019-01-30T00:27:02.952Z,12.78
2019-01-30T00:31:04.040Z,15.45
2019-01-30T00:35:06.941Z,11.75
2019-01-30T00:39:08.362Z,9.93
2019-01-30T00:43:10.278Z,11.22
2019-01-30T00:47:15.880Z,10.93
2019-01-30T00:51:14.473Z,8.65
2019-01-30T00:55:15.696Z,11.88
2019-01-30T00:59:16.791Z,9.48
2019-01-30T01:03:17.930Z,9.23
2019-01-30T01:07:19.055Z,9.68
2019-01-30T01:11:20.128Z,9.68
2019-01-30T01:15:21.245Z,11.63
2019-01-30T01:19:22.294Z,13.65
2019-01-30T01:23:23.513Z,14.38
2019-01-30T01:27:24.606Z,13.50
2019-01-30T01:31:25.789Z,13.45
2019-01-30T01:35:27.060Z,13.40
2019-01-30T01:39:28.224Z,11.63
2019-01-30T01:43:29.498Z,10.60
2019-01-30T01:47:32.143Z,9.95
2019-01-30T01:51:33.431Z,13.60
2019-01-30T01:55:34.694Z,11.33
2019-01-30T01:59:35.780Z,14.35
2019-01-30T02:03:36.727Z,11.50
2019-01-30T02:07:37.943Z,14.75
2019-01-30T02:11:39.063Z,13.95
2019-01-30T02:15:40.159Z,10.95
2019-01-30T02:19:41.655Z,14.40
2019-01-30T02:23:42.738Z,12.60
2019-01-30T02:27:43.922Z,11.25
2019-01-30T02:31:45.187Z,11.65
2019-01-30T02:35:46.155Z,11.63
2019-01-30T02:39:47.317Z,11.70
2019-01-30T02:43:48.452Z,12.15
2019-01-30T02:47:50.657Z,10.95
2019-01-30T02:51:51.877Z,13.93
2019-01-30T02:55:53.133Z,12.78
2019-01-30T02:59:54.782Z,12.37
2019-01-30T03:03:55.820Z,12.53
2019-01-30T03:07:56.990Z,14.30
2019-01-30T03:11:58.057Z,12.25
2019-01-30T03:15:59.316Z,12.10
2019-01-30T03:20:00.686Z,11.90
2019-01-30T03:24:01.949Z,13.72
2019-01-30T03:28:03.092Z,11.90
2019-01-30T03:32:04.316Z,11.93
2019-01-30T03:36:05.501Z,10.65
2019-01-30T03:40:11.608Z,12.23
2019-01-30T03:44:12.930Z,11.83
2019-01-30T03:48:14.118Z,11.93
2019-01-30T03:52:15.342Z,13.03
2019-01-30T03:56:16.680Z,15.43
2019-01-30T04:00:18.984Z,13.50
2019-01-30T04:04:20.240Z,15.80
2019-01-30T04:08:22.114Z,12.30
2019-01-30T04:12:23.472Z,13.18
2019-01-30T04:16:24.514Z,12.23
2019-01-30T04:20:26.724Z,13.18
2019-01-30T04:24:27.894Z,13.35
2019-01-30T04:28:28.999Z,13.50
2019-01-30T04:32:30.373Z,13.35
2019-01-30T04:36:32.415Z,13.08
2019-01-30T04:40:33.819Z,13.22
2019-01-30T04:44:34.964Z,12.85
2019-01-30T04:48:36.156Z,12.78
2019-01-30T04:52:37.478Z,11.78
2019-01-30T04:56:38.945Z,12.70
2019-01-30T05:00:40.008Z,12.53
2019-01-30T05:04:41.147Z,12.45
2019-01-30T05:08:42.174Z,14.28
2019-01-30T05:12:43.267Z,10.68
2019-01-30T05:16:44.411Z,11.00
2019-01-30T05:20:45.869Z,12.15
2019-01-30T05:24:47.125Z,12.05
2019-01-30T05:28:48.430Z,12.70
2019-01-30T05:32:49.539Z,13.55
2019-01-30T05:36:50.694Z,15.48
2019-01-30T05:40:51.928Z,13.88
2019-01-30T05:44:53.307Z,12.53
2019-01-30T05:48:54.577Z,14.93
2019-01-30T05:52:55.765Z,13.58
2019-01-30T05:56:56.919Z,13.20
2019-01-30T06:00:58.312Z,12.43
2019-01-30T06:04:59.595Z,14.43
2019-01-30T06:09:00.996Z,15.70
2019-01-30T06:13:03.540Z,13.55
2019-01-30T06:17:04.759Z,12.33
2019-01-30T06:21:06.266Z,14.28
2019-01-30T06:25:08.176Z,14.50
2019-01-30T06:29:09.290Z,14.15
2019-01-30T06:33:10.363Z,14.63
2019-01-30T06:37:11.599Z,12.33
2019-01-30T06:41:12.743Z,13.32
2019-01-30T06:45:14.114Z,13.03
2019-01-30T06:49:15.251Z,15.78
2019-01-30T06:53:16.406Z,15.18
2019-01-30T06:57:17.651Z,14.85
2019-01-30T07:01:18.755Z,13.20
2019-01-30T07:05:19.989Z,13.05
2019-01-30T07:09:21.411Z,18.45
2019-01-30T07:13:24.072Z,13.68
2019-01-30T07:17:25.762Z,16.90
2019-01-30T07:21:26.860Z,17.07
2019-01-30T07:25:28.117Z,15.48
2019-01-30T07:29:29.242Z,18.87
2019-01-30T07:33:30.324Z,17.45
2019-01-30T07:37:31.289Z,15.83
2019-01-30T07:41:32.536Z,15.68
2019-01-30T07:45:33.648Z,12.00
2019-01-30T07:49:34.947Z,13.70
2019-01-30T07:53:36.321Z,11.43
2019-01-30T07:57:37.420Z,12.95
2019-01-30T08:01:38.615Z,8.60
2019-01-30T08:05:39.891Z,10.48
2019-01-30T08:09:40.956Z,13.32
2019-01-30T08:13:43.921Z,9.30
2019-01-30T08:17:45.725Z,9.73
2019-01-30T08:21:48.081Z,8.40
2019-01-30T08:25:50.640Z,11.60
2019-01-30T08:29:52.252Z,8.05
2019-01-30T08:33:53.701Z,8.18
2019-01-30T08:37:54.789Z,6.50
2019-01-30T08:41:55.999Z,11.55
2019-01-30T08:46:01.080Z,7.72
2019-01-30T08:50:02.813Z,6.87
2019-01-30T08:54:05.217Z,12.85
2019-01-30T08:58:06.573Z,9.70
2019-01-30T09:02:07.967Z,7.83
2019-01-30T09:06:09.198Z,6.42
2019-01-30T09:10:11.875Z,5.50
2019-01-30T09:14:13.144Z,9.38
2019-01-30T09:18:14.403Z,6.75
2019-01-30T09:22:15.636Z,9.45
2019-01-30T09:26:16.893Z,6.53
2019-01-30T09:30:22.761Z,7.65
2019-01-30T09:34:24.016Z,8.23
2019-01-30T09:38:25.477Z,6.83
2019-01-30T09:42:26.885Z,8.43
2019-01-30T09:46:27.920Z,5.35
2019-01-30T09:50:29.147Z,7.40
2019-01-30T09:54:30.723Z,5.12
2019-01-30T09:58:31.993Z,6.60
2019-01-30T10:02:33.389Z,7.35
2019-01-30T10:06:34.585Z,7.20
2019-01-30T10:10:36.559Z,5.50
2019-01-30T10:14:37.699Z,4.95
2019-01-30T10:18:38.767Z,4.33
2019-01-30T10:22:40.355Z,2.50
2019-01-30T10:26:41.482Z,3.50
2019-01-30T10:30:43.735Z,2.22
2019-01-30T10:34:45.024Z,2.27
2019-01-30T10:38:46.491Z,2.85
2019-01-30T10:42:48.089Z,1.55
2019-01-30T10:46:49.163Z,4.67
2019-01-30T10:50:50.271Z,2.22
2019-01-30T10:54:51.642Z,1.20
2019-01-30T10:58:52.726Z,1.30
2019-01-30T11:02:54.030Z,2.30
2019-01-30T11:06:55.185Z,3.17
2019-01-30T11:10:56.505Z,2.02
2019-01-30T11:14:57.802Z,2.58
2019-01-30T11:18:59.117Z,1.82
2019-01-30T11:23:00.235Z,1.95
2019-01-30T11:27:01.321Z,3.37
2019-01-30T11:31:02.322Z,1.45
2019-01-30T11:35:04.519Z,0.60
2019-01-30T11:39:05.590Z,3.42
2019-01-30T11:43:07.035Z,2.87
2019-01-30T11:47:08.283Z,7.22
2019-01-30T11:51:09.451Z,3.83
2019-01-30T11:55:11.822Z,2.00
2019-01-30T11:59:13.275Z,1.98
2019-01-30T12:03:14.632Z,2.72
2019-01-30T12:07:15.889Z,3.35
2019-01-30T12:11:17.118Z,2.95
2019-01-30T12:15:19.459Z,2.75
2019-01-30T12:19:20.647Z,2.98
2019-01-30T12:23:21.762Z,0.93
2019-01-30T12:27:23.095Z,1.65
2019-01-30T12:31:24.273Z,2.05
2019-01-30T12:35:25.710Z,5.87
2019-01-30T12:39:27.072Z,2.42
2019-01-30T12:43:28.454Z,2.05
2019-01-30T12:47:30.100Z,4.10
2019-01-30T12:51:31.357Z,1.07
2019-01-30T12:55:32.492Z,1.67
2019-01-30T12:59:33.690Z,1.60
2019-01-30T13:03:35.171Z,2.47
2019-01-30T13:07:36.319Z,1.12
2019-01-30T13:11:37.392Z,1.55
2019-01-30T13:15:38.599Z,2.17
2019-01-30T13:19:39.805Z,1.15
2019-01-30T13:23:41.012Z,1.10
2019-01-30T13:27:42.212Z,0.95
2019-01-30T13:31:43.523Z,1.00
2019-01-30T13:35:44.876Z,0.75
2019-01-30T13:39:47.419Z,0.90
2019-01-30T13:43:48.712Z,1.30
2019-01-30T13:47:50.933Z,2.05
2019-01-30T13:51:52.037Z,1.10
2019-01-30T13:55:53.141Z,4.53
2019-01-30T13:59:54.300Z,0.98
2019-01-30T14:03:55.423Z,2.35
2019-01-30T14:07:56.636Z,3.30
2019-01-30T14:11:58.042Z,1.40
2019-01-30T14:16:01.202Z,1.42
2019-01-30T14:20:03.897Z,1.35
2019-01-30T14:24:05.096Z,1.30
2019-01-30T14:28:06.412Z,1.30
2019-01-30T14:32:07.572Z,1.07
2019-01-30T14:36:09.021Z,4.12
2019-01-30T14:40:11.757Z,2.17
2019-01-30T14:44:26.187Z,5.65
2019-01-30T14:48:27.452Z,3.60
2019-01-30T14:52:28.863Z,13.80
2019-01-30T14:56:30.055Z,2.17
2019-01-30T15:00:31.821Z,1.35
2019-01-30T15:04:33.011Z,3.35
2019-01-30T15:08:34.205Z,6.17
2019-01-30T15:12:36.498Z,4.83
2019-01-30T15:16:37.888Z,6.05
2019-01-30T15:20:39.557Z,3.42
2019-01-30T15:24:40.598Z,1.25
2019-01-30T15:28:42.821Z,3.83
2019-01-30T15:32:44.105Z,5.22
2019-01-30T15:36:45.330Z,7.33
2019-01-30T15:40:46.607Z,7.87
2019-01-30T15:44:50.208Z,3.70
2019-01-30T15:48:51.817Z,5.22
2019-01-30T15:52:53.274Z,2.62
2019-01-30T15:56:54.377Z,3.77
2019-01-30T16:00:57.326Z,2.85
2019-01-30T16:04:58.741Z,2.65
2019-01-30T16:09:00.047Z,3.15
2019-01-30T16:13:01.038Z,3.10
2019-01-30T16:17:02.202Z,3.62
2019-01-30T16:21:03.536Z,3.58
2019-01-30T16:25:09.237Z,2.52
2019-01-30T16:29:09.273Z,2.62
2019-01-30T16:33:13.306Z,4.67
2019-01-30T16:37:14.496Z,4.17
2019-01-30T16:41:15.857Z,4.87
2019-01-30T16:45:21.672Z,3.08
2019-01-30T16:49:24.410Z,4.37
2019-01-30T16:53:29.547Z,3.47
2019-01-30T16:57:34.358Z,2.47
2019-01-30T17:01:38.708Z,3.47
2019-01-30T17:05:41.391Z,3.25
2019-01-30T17:09:47.377Z,3.17
2019-01-30T17:13:56.315Z,5.08
2019-01-30T17:18:03.978Z,5.17
2019-01-30T17:22:09.757Z,6.22
2019-01-30T17:26:17.964Z,4.67
2019-01-30T17:30:28.632Z,3.58
2019-01-30T17:34:35.016Z,4.83
2019-01-30T17:38:41.152Z,4.28
2019-01-30T17:42:52.061Z,5.58
2019-01-30T17:46:53.523Z,4.08
2019-01-30T17:50:55.089Z,4.62
2019-01-30T17:54:56.447Z,3.40
2019-01-30T17:58:57.805Z,2.40
2019-01-30T18:03:00.114Z,3.58
2019-01-30T18:07:01.864Z,6.75
2019-01-30T18:11:02.957Z,3.75
2019-01-30T18:15:07.058Z,3.90
2019-01-30T18:19:08.409Z,6.33
2019-01-30T18:23:09.755Z,4.42
2019-01-30T18:27:10.912Z,4.25
2019-01-30T18:31:12.238Z,5.08
2019-01-30T18:35:13.791Z,4.87
2019-01-30T18:39:16.990Z,5.80
2019-01-30T18:43:18.606Z,4.60
2019-01-30T18:47:19.785Z,6.30
2019-01-30T18:51:22.070Z,4.25
2019-01-30T18:55:26.167Z,4.33
2019-01-30T18:59:29.467Z,3.80
2019-01-30T19:03:33.417Z,6.33
2019-01-30T19:07:36.220Z,7.12
2019-01-30T19:11:39.424Z,4.42
2019-01-30T19:15:42.177Z,4.80
2019-01-30T19:19:46.114Z,6.17
2019-01-30T19:23:50.758Z,5.55
2019-01-30T19:28:00.423Z,6.42
2019-01-30T19:32:03.615Z,9.45
2019-01-30T19:36:06.434Z,3.95
2019-01-30T19:40:10.663Z,6.85
2019-01-30T19:44:14.974Z,5.45
2019-01-30T19:48:17.751Z,7.53
2019-01-30T19:52:19.306Z,6.42
2019-01-30T19:56:21.988Z,5.92
2019-01-30T20:00:24.691Z,25.92
2019-01-30T20:04:25.931Z,12.35
2019-01-30T20:08:27.199Z,8.83
2019-01-30T20:12:29.889Z,7.60
2019-01-30T20:16:31.300Z,7.72
2019-01-30T20:20:32.510Z,8.45
2019-01-30T20:24:33.759Z,4.90
2019-01-30T20:28:35.096Z,8.90
2019-01-30T20:32:37.803Z,11.00
2019-01-30T20:36:39.508Z,7.65
2019-01-30T20:40:41.243Z,7.00
2019-01-30T20:44:42.917Z,6.12
2019-01-30T20:48:46.956Z,9.68
2019-01-30T20:52:47.385Z,7.87
2019-01-30T20:56:48.650Z,11.28
2019-01-30T21:00:49.899Z,9.25
2019-01-30T21:04:51.153Z,8.25
2019-01-30T21:08:52.610Z,13.88
2019-01-30T21:12:53.861Z,10.18
2019-01-30T21:16:55.001Z,9.60
2019-01-30T21:20:56.249Z,9.25
2019-01-30T21:24:57.757Z,6.35
2019-01-30T21:28:59.111Z,12.10
2019-01-30T21:33:03.726Z,15.32
2019-01-30T21:37:05.102Z,8.08
2019-01-30T21:41:06.662Z,7.42
2019-01-30T21:45:09.774Z,7.03
2019-01-30T21:49:11.218Z,11.63
2019-01-30T21:53:12.337Z,8.78
2019-01-30T21:57:13.629Z,10.53
2019-01-30T22:01:14.894Z,8.73
2019-01-30T22:05:16.066Z,13.28
2019-01-30T22:09:17.709Z,9.60
2019-01-30T22:13:18.775Z,9.18
2019-01-30T22:17:20.019Z,10.40
2019-01-30T22:21:21.196Z,8.95
2019-01-30T22:25:23.355Z,9.50
2019-01-30T22:29:24.777Z,10.40
2019-01-30T22:33:26.423Z,10.18
2019-01-30T22:37:27.647Z,11.97
2019-01-30T22:41:28.924Z,9.03
2019-01-30T22:45:30.259Z,11.53
2019-01-30T22:49:31.417Z,10.65
2019-01-30T22:53:33.076Z,11.80
2019-01-30T22:57:34.263Z,8.78
2019-01-30T23:01:37.546Z,10.58
2019-01-30T23:05:57.531Z,9.33
2019-01-30T23:10:12.946Z,14.53
2019-01-30T23:14:15.395Z,14.53
2019-01-30T23:18:35.928Z,12.28
2019-01-30T23:22:39.094Z,13.58
2019-01-30T23:26:42.102Z,11.05
2019-01-30T23:30:48.287Z,12.85
2019-01-30T23:34:57.633Z,9.78
2019-01-30T23:39:09.535Z,13.62
2019-01-30T23:43:19.964Z,12.60
2019-01-30T23:47:23.119Z,11.43
2019-01-30T23:51:29.109Z,12.70
2019-01-30T23:55:32.156Z,11.85
2019-01-30T23:59:52.283Z,9.45
